Time;durP1;ratioP1;P1;durP2;ratioP2;P2;SDS_P1;SDS_P2;PMS_P1;PMS_P2;Temp;Humidity;BMP_temperature;BMP_pressure;BME280_temperature;BME280_humidity;BME280_pressure;Samples;Min_cycle;Max_cycle;Signal;HPM_P1;HPM_P2
2022/10/26 00:00:24;;;;;;;4.43;3.33;;;;;;;15.98;79.93;98694.91;5028979;27;102703;-72
2022/10/26 00:02:53;;;;;;;8.18;5.57;;;;;;;15.52;80.61;98691.22;5031005;27;103191;-72
2022/10/26 00:05:21;;;;;;;7.13;5.10;;;;;;;15.72;80.74;98683.22;5034382;27;103525;-72
2022/10/26 00:07:49;;;;;;;9.75;5.90;;;;;;;15.38;81.37;98683.63;5032234;27;103282;-73
2022/10/26 00:10:20;;;;;;;5.18;3.63;;;;;;;15.96;80.29;98687.06;5025220;27;103102;-72
2022/10/26 00:12:50;;;;;;;4.10;3.45;;;;;;;16.19;78.96;98695.56;5031412;27;102709;-73
2022/10/26 00:15:19;;;;;;;4.90;3.47;;;;;;;16.32;78.16;98698.72;5028911;27;103307;-72
2022/10/26 00:17:48;;;;;;;4.87;3.60;;;;;;;16.40;77.77;98695.31;5032334;27;103348;-72
2022/10/26 00:20:17;;;;;;;5.35;3.63;;;;;;;16.47;77.72;98691.09;5028347;27;102848;-72
2022/10/26 00:22:45;;;;;;;6.13;4.50;;;;;;;16.51;77.32;98692.44;5024556;27;103925;-72
2022/10/26 00:25:15;;;;;;;4.47;3.70;;;;;;;16.54;77.17;98698.38;5032605;27;104043;-72
2022/10/26 00:27:43;;;;;;;4.72;3.92;;;;;;;16.56;76.86;98685.72;5037446;27;103304;-72
2022/10/26 00:30:10;;;;;;;5.78;4.35;;;;;;;16.55;76.73;98689.41;5037573;27;102677;-72
2022/10/26 00:32:38;;;;;;;7.75;4.90;;;;;;;15.84;79.39;98692.72;5036361;27;102747;-72
2022/10/26 00:35:09;;;;;;;8.75;5.20;;;;;;;15.71;80.71;98692.19;5031650;27;104174;-73
2022/10/26 00:37:54;;;;;;;7.97;5.20;;;;;;;15.91;79.62;98688.50;5032856;27;103233;-72
2022/10/26 00:40:22;;;;;;;8.07;4.82;;;;;;;16.08;79.01;98685.09;5032501;27;102744;-71
2022/10/26 00:42:52;;;;;;;6.70;4.72;;;;;;;16.20;78.68;98690.06;5034184;27;102656;-72
2022/10/26 00:45:24;;;;;;;5.72;4.50;;;;;;;16.13;78.91;98693.47;5029525;27;103334;-72
2022/10/26 00:47:57;;;;;;;4.65;3.90;;;;;;;16.36;78.32;98689.47;5033497;27;103243;-72
2022/10/26 00:50:30;;;;;;;4.53;3.70;;;;;;;16.52;77.40;98692.31;5033062;27;102599;-71
2022/10/26 00:53:02;;;;;;;8.30;5.50;;;;;;;16.44;77.27;98691.38;5032401;27;103369;-72
2022/10/26 00:55:33;;;;;;;7.75;5.22;;;;;;;16.37;77.79;98696.44;5041876;27;104067;-72
2022/10/26 00:58:03;;;;;;;4.85;3.67;;;;;;;16.55;77.47;98691.22;5038482;27;103263;-72
2022/10/26 01:00:30;;;;;;;5.93;3.80;;;;;;;16.59;77.32;98696.09;5029009;27;103765;-72
2022/10/26 01:03:04;;;;;;;4.82;3.83;;;;;;;16.67;76.96;98704.19;5032200;27;102716;-72
2022/10/26 01:05:36;;;;;;;5.70;3.93;;;;;;;16.75;76.72;98700.78;5029733;27;103232;-72
2022/10/26 01:08:04;;;;;;;8.90;6.10;;;;;;;16.47;77.31;98691.09;5040366;27;103198;-72
2022/10/26 01:10:34;;;;;;;11.23;6.03;;;;;;;16.06;78.84;98697.69;5035291;27;103725;-72
2022/10/26 01:13:02;;;;;;;7.30;4.57;;;;;;;16.45;78.40;98693.88;5030735;27;102743;-72
2022/10/26 01:15:38;;;;;;;4.60;3.60;;;;;;;16.65;77.42;98700.00;5029360;27;103750;-72
2022/10/26 01:18:14;;;;;;;9.18;4.75;;;;;;;16.50;77.38;98696.97;5030313;27;103375;-72
2022/10/26 01:21:13;;;;;;;8.75;5.40;;;;;;;16.40;78.03;98681.97;5034717;27;103203;-72
2022/10/26 01:23:59;;;;;;;7.05;4.70;;;;;;;16.25;79.14;98681.66;5029584;27;103196;-72
2022/10/26 01:26:48;;;;;;;9.32;5.00;;;;;;;15.83;79.88;98685.72;5030855;27;104071;-72
2022/10/26 01:29:38;;;;;;;6.13;4.82;;;;;;;15.50;82.90;98681.69;5030455;27;103412;-72
2022/10/26 01:32:14;;;;;;;9.45;4.97;;;;;;;15.70;81.64;98682.50;5027577;27;102642;-72
2022/10/26 01:34:46;;;;;;;6.88;4.68;;;;;;;15.65;82.59;98667.81;5030976;27;103704;-71
2022/10/26 01:37:23;;;;;;;9.38;6.05;;;;;;;14.78;86.29;98666.13;5030952;27;103252;-72
2022/10/26 01:39:55;;;;;;;7.72;5.32;;;;;;;14.90;86.76;98659.69;5037736;27;103302;-71
2022/10/26 01:42:27;;;;;;;9.80;5.53;;;;;;;15.15;85.45;98665.44;5034171;27;102676;-70
2022/10/26 01:45:00;;;;;;;4.97;4.20;;;;;;;15.63;84.15;98656.44;5034308;27;103201;-72
2022/10/26 01:47:31;;;;;;;8.68;5.43;;;;;;;14.84;85.99;98660.25;5032386;27;102979;-72
2022/10/26 01:50:01;;;;;;;5.97;4.70;;;;;;;15.46;84.49;98667.84;5032632;27;104391;-72
2022/10/26 01:52:29;;;;;;;5.43;3.67;;;;;;;16.08;81.59;98661.91;5033242;27;102592;-72
2022/10/26 01:55:01;;;;;;;9.47;5.17;;;;;;;15.90;81.50;98649.50;5025151;27;103241;-72
2022/10/26 01:57:35;;;;;;;6.57;4.53;;;;;;;16.25;80.20;98655.81;5022783;27;103920;-72
2022/10/26 02:00:07;;;;;;;7.03;4.72;;;;;;;16.34;79.53;98670.09;5034301;27;103410;-73
2022/10/26 02:02:52;;;;;;;3.83;3.30;;;;;;;16.43;79.67;98653.22;5033365;27;102984;-72
2022/10/26 02:05:41;;;;;;;7.97;4.90;;;;;;;15.82;82.85;98646.72;5033073;27;104048;-72
2022/10/26 02:08:23;;;;;;;7.38;4.95;;;;;;;15.99;81.60;98643.31;5031931;27;103388;-72
2022/10/26 02:11:01;;;;;;;10.30;5.93;;;;;;;15.07;85.32;98629.72;5035490;27;103166;-72
2022/10/26 02:13:33;;;;;;;11.00;6.15;;;;;;;14.71;89.34;98619.78;5030458;27;102746;-71
2022/10/26 02:16:11;;;;;;;7.65;5.13;;;;;;;15.29;87.40;98611.78;5028224;27;102672;-72
2022/10/26 02:18:47;;;;;;;6.03;4.22;;;;;;;15.91;84.35;98624.56;5031868;27;103906;-72
2022/10/26 02:21:18;;;;;;;9.73;5.80;;;;;;;15.52;84.15;98627.31;5039880;27;103274;-72
2022/10/26 02:23:49;;;;;;;5.88;4.80;;;;;;;15.81;83.72;98631.72;5033619;27;102564;-71
2022/10/26 02:26:20;;;;;;;9.87;5.60;;;;;;;15.85;82.58;98647.28;5034199;27;102868;-72
2022/10/26 02:28:51;;;;;;;5.65;4.50;;;;;;;16.08;81.77;98647.78;5032097;27;103290;-71
2022/10/26 02:31:20;;;;;;;7.33;5.20;;;;;;;16.16;80.32;98647.88;5033647;27;103522;-72
2022/10/26 02:33:53;;;;;;;5.40;4.00;;;;;;;15.96;82.85;98651.59;5033574;27;104759;-71
2022/10/26 02:36:25;;;;;;;4.37;3.27;;;;;;;16.30;81.42;98663.38;5040606;27;102734;-71
2022/10/26 02:38:55;;;;;;;4.60;3.45;;;;;;;16.43;80.50;98671.03;5033142;27;103649;-71
2022/10/26 02:41:26;;;;;;;6.20;4.43;;;;;;;16.51;79.63;98669.28;5037769;27;103253;-71
2022/10/26 02:44:11;;;;;;;7.07;4.70;;;;;;;16.46;78.91;98673.41;5026704;27;102626;-72
2022/10/26 02:46:40;;;;;;;4.70;3.70;;;;;;;16.54;79.43;98681.53;5034865;27;103622;-72
2022/10/26 02:49:09;;;;;;;4.10;3.45;;;;;;;16.60;78.92;98676.44;5030259;27;104043;-72
2022/10/26 02:51:43;;;;;;;4.30;3.50;;;;;;;16.68;78.64;98673.03;5039327;27;103391;-72
2022/10/26 02:54:16;;;;;;;4.45;3.65;;;;;;;16.59;78.75;98658.75;5036013;27;102741;-72
2022/10/26 02:56:48;;;;;;;4.22;3.33;;;;;;;16.66;78.90;98665.19;5034302;27;103383;-72
2022/10/26 02:59:22;;;;;;;4.35;3.85;;;;;;;16.68;78.51;98668.53;5032525;27;103407;-71
2022/10/26 03:01:51;;;;;;;4.80;3.10;;;;;;;16.72;78.27;98669.06;5033242;27;103256;-71
2022/10/26 03:04:20;;;;;;;8.43;5.05;;;;;;;15.72;82.04;98662.72;5032747;27;102617;-71
2022/10/26 03:06:52;;;;;;;3.93;3.53;;;;;;;16.17;81.71;98669.03;5034687;27;102969;-71
2022/10/26 03:09:20;;;;;;;8.50;4.60;;;;;;;15.82;82.70;98676.03;5026078;27;104414;-71
2022/10/26 03:11:54;;;;;;;6.03;4.40;;;;;;;15.72;83.31;98678.72;5036191;27;103564;-71
2022/10/26 03:14:22;;;;;;;6.25;4.00;;;;;;;16.03;81.87;98682.84;5041303;27;102706;-72
2022/10/26 03:16:49;;;;;;;3.80;2.90;;;;;;;16.32;80.57;98687.22;5029827;27;103997;-71
2022/10/26 03:19:19;;;;;;;7.40;4.28;;;;;;;16.43;79.43;98692.34;5030415;27;108290;-71
2022/10/26 03:21:47;;;;;;;5.93;4.82;;;;;;;16.32;80.08;98688.06;5035926;27;103430;-72
2022/10/26 03:24:15;;;;;;;3.30;2.97;;;;;;;16.46;79.65;98684.91;5032729;27;102622;-71
2022/10/26 03:26:42;;;;;;;6.77;4.27;;;;;;;16.48;79.43;98688.25;5036809;27;103913;-72
2022/10/26 03:29:10;;;;;;;3.65;3.15;;;;;;;16.56;79.47;98690.25;5034583;27;103067;-72
2022/10/26 03:31:38;;;;;;;4.38;3.38;;;;;;;16.58;79.25;98697.09;5032828;27;103286;-72
2022/10/26 03:34:06;;;;;;;3.70;3.10;;;;;;;16.64;78.90;98704.50;5041533;27;102632;-71
2022/10/26 03:36:35;;;;;;;9.55;5.40;;;;;;;15.63;83.04;98701.72;5040744;27;102630;-73
2022/10/26 03:39:05;;;;;;;9.63;6.17;;;;;;;15.60;84.13;98707.34;5031133;27;104221;-72
2022/10/26 03:41:33;;;;;;;4.80;3.95;;;;;;;16.18;82.70;98715.19;5027070;27;102599;-71
2022/10/26 03:44:00;;;;;;;7.85;4.93;;;;;;;16.11;81.85;98719.44;5027291;27;104222;-71
2022/10/26 03:46:28;;;;;;;9.60;6.17;;;;;;;16.12;80.67;98713.09;5032996;27;104293;-70
2022/10/26 03:48:56;;;;;;;7.68;5.00;;;;;;;15.86;81.98;98706.75;5030748;27;103346;-70
2022/10/26 03:51:24;;;;;;;5.57;4.53;;;;;;;15.93;82.30;98691.84;5035706;27;103236;-72
2022/10/26 03:53:53;;;;;;;10.07;5.57;;;;;;;15.34;83.66;98700.88;5032472;27;102960;-71
2022/10/26 03:56:20;;;;;;;6.90;5.07;;;;;;;15.09;85.23;98709.41;5033832;27;102637;-72
2022/10/26 03:58:48;;;;;;;7.70;4.55;;;;;;;15.70;83.47;98699.31;5033372;27;103678;-71
2022/10/26 04:01:16;;;;;;;7.55;4.85;;;;;;;14.87;86.21;98691.06;5032822;27;104441;-73
2022/10/26 04:03:44;;;;;;;8.60;4.77;;;;;;;14.29;90.35;98698.81;5038475;27;106285;-72
2022/10/26 04:06:11;;;;;;;7.43;4.72;;;;;;;14.71;89.00;98685.44;5033862;27;104057;-71
2022/10/26 04:08:39;;;;;;;8.57;5.18;;;;;;;14.54;89.72;98686.09;5037310;27;103691;-72
2022/10/26 04:11:08;;;;;;;8.03;5.23;;;;;;;14.61;89.25;98689.88;5027646;27;103683;-72
2022/10/26 04:13:36;;;;;;;8.07;5.60;;;;;;;14.59;89.01;98691.81;5030740;27;102957;-72
2022/10/26 04:16:04;;;;;;;8.25;5.47;;;;;;;14.56;89.02;98689.44;5036006;27;103501;-72
2022/10/26 04:18:32;;;;;;;8.97;5.10;;;;;;;14.34;90.29;98678.03;5032249;27;103433;-72
2022/10/26 04:21:01;;;;;;;9.25;6.35;;;;;;;14.68;89.07;98680.38;5034067;27;103229;-72
2022/10/26 04:23:28;;;;;;;7.93;5.43;;;;;;;15.24;85.34;98670.75;5038601;27;103520;-72
2022/10/26 04:25:56;;;;;;;7.93;5.50;;;;;;;15.46;85.15;98673.16;5032386;27;103407;-72
2022/10/26 04:28:25;;;;;;;8.80;5.35;;;;;;;15.69;84.24;98662.19;5035224;27;103854;-72
2022/10/26 04:30:53;;;;;;;8.63;5.70;;;;;;;15.56;82.95;98659.81;5033804;27;103449;-72
2022/10/26 04:33:21;;;;;;;9.73;5.38;;;;;;;15.10;86.00;98665.88;5026827;27;102646;-72
2022/10/26 04:35:51;;;;;;;8.37;5.30;;;;;;;14.84;87.89;98670.03;5039298;27;103983;-72
2022/10/26 04:38:18;;;;;;;8.88;5.80;;;;;;;14.73;88.84;98670.16;5030320;27;103733;-72
2022/10/26 04:40:46;;;;;;;8.85;5.70;;;;;;;14.77;88.48;98679.53;5030316;27;104224;-72
2022/10/26 04:43:14;;;;;;;10.10;5.67;;;;;;;14.75;88.44;98677.03;5033191;27;102951;-72
2022/10/26 04:45:45;;;;;;;7.13;5.63;;;;;;;14.39;91.01;98674.97;5029704;27;102654;-72
2022/10/26 04:48:15;;;;;;;6.82;5.05;;;;;;;15.05;89.03;98684.06;5033461;27;103955;-71
2022/10/26 04:50:43;;;;;;;6.77;4.53;;;;;;;15.30;87.23;98688.81;5032512;27;104593;-70
2022/10/26 04:53:13;;;;;;;5.65;3.80;;;;;;;15.85;84.88;98681.91;5032200;27;102644;-71
2022/10/26 04:55:40;;;;;;;10.52;5.38;;;;;;;15.21;86.20;98665.72;5032045;27;102752;-73
2022/10/26 04:58:08;;;;;;;7.63;4.63;;;;;;;15.31;86.99;98669.22;5036059;27;104090;-73
2022/10/26 05:00:38;;;;;;;5.37;4.07;;;;;;;15.90;84.53;98666.34;5034307;27;102983;-73
2022/10/26 05:03:07;;;;;;;5.35;4.10;;;;;;;16.04;83.54;98655.22;5037303;27;102789;-73
2022/10/26 05:05:36;;;;;;;4.37;3.90;;;;;;;16.23;82.62;98662.28;5032757;27;104107;-73
2022/10/26 05:08:05;;;;;;;4.47;3.40;;;;;;;16.33;82.21;98668.44;5015028;27;103020;-74
2022/10/26 05:10:33;;;;;;;3.80;3.35;;;;;;;16.46;81.71;98660.91;5021791;27;103224;-71
2022/10/26 05:13:01;;;;;;;4.82;3.10;;;;;;;16.55;81.25;98673.38;5025102;27;103117;-71
2022/10/26 05:15:31;;;;;;;3.97;3.03;;;;;;;16.62;80.70;98679.78;5028880;27;104241;-71
2022/10/26 05:18:01;;;;;;;4.13;2.70;;;;;;;16.62;80.77;98685.13;5032793;27;103508;-71
2022/10/26 05:20:32;;;;;;;5.18;3.58;;;;;;;16.64;80.51;98677.84;5026429;27;103371;-75
2022/10/26 05:23:02;;;;;;;5.68;3.67;;;;;;;16.67;79.91;98672.19;5032989;27;102784;-76
2022/10/26 05:25:32;;;;;;;3.63;2.95;;;;;;;16.68;80.29;98681.88;5025152;27;103038;-71
2022/10/26 05:28:01;;;;;;;3.42;3.03;;;;;;;16.70;80.19;98676.41;5029103;27;103847;-71
2022/10/26 05:30:30;;;;;;;7.13;3.65;;;;;;;16.69;79.83;98688.91;5023646;27;103340;-71
2022/10/26 05:32:59;;;;;;;4.75;3.13;;;;;;;16.70;80.17;98687.06;5030513;27;102596;-71
2022/10/26 05:35:28;;;;;;;4.85;3.40;;;;;;;16.51;80.10;98700.44;5030973;27;104065;-71
2022/10/26 05:37:58;;;;;;;6.22;3.70;;;;;;;16.21;81.08;98693.59;5031789;27;104022;-71
2022/10/26 05:40:26;;;;;;;6.95;4.00;;;;;;;15.40;85.53;98700.31;5029160;27;104192;-70
2022/10/26 05:43:00;;;;;;;8.40;3.75;;;;;;;15.71;84.48;98698.34;5031977;27;102912;-71
2022/10/26 05:45:28;;;;;;;6.25;4.00;;;;;;;14.89;88.93;98707.69;5035657;27;103496;-74
2022/10/26 05:47:56;;;;;;;6.25;4.35;;;;;;;14.89;89.73;98718.34;5049092;27;105233;-74
2022/10/26 05:50:29;;;;;;;5.40;4.38;;;;;;;14.87;90.62;98709.66;5039160;27;103224;-73
2022/10/26 05:53:01;;;;;;;6.22;4.22;;;;;;;15.08;89.85;98715.69;5030410;27;103085;-74
2022/10/26 05:55:29;;;;;;;7.47;4.32;;;;;;;15.26;88.20;98713.19;5037543;27;102980;-74
2022/10/26 05:57:58;;;;;;;6.60;3.88;;;;;;;15.52;86.56;98715.19;5036440;27;103283;-73
2022/10/26 06:00:27;;;;;;;5.40;3.80;;;;;;;15.30;87.86;98723.41;5038664;27;102999;-74
2022/10/26 06:03:17;;;;;;;5.18;3.30;;;;;;;16.17;84.69;98721.50;5043971;27;102705;-73
2022/10/26 06:05:52;;;;;;;4.85;3.50;;;;;;;16.31;84.04;98729.03;5034639;27;103017;-73
2022/10/26 06:08:23;;;;;;;7.22;3.63;;;;;;;16.51;82.56;98729.78;5036847;27;104093;-74
2022/10/26 06:10:52;;;;;;;4.60;3.58;;;;;;;16.59;81.92;98733.44;5049062;27;103426;-74
2022/10/26 06:13:21;;;;;;;7.53;4.50;;;;;;;16.39;82.75;98739.81;5031587;27;102772;-74
2022/10/26 06:16:02;;;;;;;4.00;3.30;;;;;;;16.70;81.43;98746.56;5040738;27;104490;-74
2022/10/26 06:18:43;;;;;;;6.70;3.97;;;;;;;16.59;80.95;98752.09;5034549;27;103251;-74
2022/10/26 06:21:31;;;;;;;10.18;4.45;;;;;;;15.96;83.75;98761.69;5035533;27;104295;-74
2022/10/26 06:24:06;;;;;;;8.45;3.80;;;;;;;16.17;83.52;98761.47;5037741;27;102636;-73
2022/10/26 06:26:42;;;;;;;6.30;4.00;;;;;;;15.98;85.55;98781.03;5038226;27;103019;-73
2022/10/26 06:29:18;;;;;;;6.90;4.20;;;;;;;15.61;86.23;98774.72;5033646;27;103282;-73
2022/10/26 06:31:47;;;;;;;6.80;3.83;;;;;;;16.02;85.79;98785.09;5040589;27;103212;-73
2022/10/26 06:34:22;;;;;;;5.65;3.90;;;;;;;15.63;87.04;98781.59;5036649;27;102733;-72
2022/10/26 06:36:51;;;;;;;7.35;4.00;;;;;;;16.04;85.59;98774.28;5041619;27;103720;-72
2022/10/26 06:39:28;;;;;;;6.55;3.58;;;;;;;15.92;85.25;98780.75;5034270;27;104114;-72
2022/10/26 06:41:56;;;;;;;7.53;3.80;;;;;;;16.24;84.39;98783.91;5035731;27;103631;-72
2022/10/26 06:44:25;;;;;;;7.20;3.83;;;;;;;16.35;83.26;98782.91;5029235;27;103030;-72
2022/10/26 06:47:04;;;;;;;7.90;4.13;;;;;;;16.50;83.42;98782.31;5030911;27;102780;-72
2022/10/26 06:49:36;;;;;;;7.22;4.13;;;;;;;16.36;83.30;98790.78;5031685;27;103693;-74
2022/10/26 06:52:13;;;;;;;4.97;3.67;;;;;;;16.63;83.74;98798.00;5061994;27;102636;-74
2022/10/26 06:54:50;;;;;;;8.07;5.10;;;;;;;16.08;85.13;98802.34;5038835;27;102701;-74
2022/10/26 06:57:20;;;;;;;7.00;4.63;;;;;;;16.05;86.10;98798.13;5037726;27;102902;-74
2022/10/26 06:59:51;;;;;;;7.85;4.80;;;;;;;16.21;86.00;98798.38;5037007;27;104305;-74
2022/10/26 07:02:19;;;;;;;6.25;4.95;;;;;;;16.17;84.87;98807.63;5060950;27;103237;-74
2022/10/26 07:04:47;;;;;;;7.80;5.63;;;;;;;15.65;87.63;98795.63;5033349;27;103326;-72
2022/10/26 07:07:18;;;;;;;8.50;5.43;;;;;;;15.64;87.77;98806.41;5031884;27;102786;-72
2022/10/26 07:09:48;;;;;;;6.87;5.57;;;;;;;15.83;88.02;98818.91;5032522;27;103361;-72
2022/10/26 07:12:16;;;;;;;10.15;6.55;;;;;;;15.64;87.43;98820.56;5036592;27;104537;-72
2022/10/26 07:14:44;;;;;;;9.40;6.30;;;;;;;15.37;89.15;98817.72;5030451;27;102666;-72
2022/10/26 07:17:12;;;;;;;11.27;6.30;;;;;;;15.29;88.90;98812.25;5037073;27;104226;-72
2022/10/26 07:19:43;;;;;;;9.30;6.40;;;;;;;15.36;90.33;98816.03;5041070;27;103853;-72
2022/10/26 07:22:11;;;;;;;9.37;6.87;;;;;;;15.36;90.56;98823.16;5035894;27;103220;-72
2022/10/26 07:24:39;;;;;;;10.95;6.47;;;;;;;15.34;90.46;98817.16;5038154;27;103098;-72
2022/10/26 07:27:08;;;;;;;7.10;4.93;;;;;;;16.08;88.42;98821.81;5037012;27;103768;-72
2022/10/26 07:29:36;;;;;;;10.52;6.32;;;;;;;15.83;87.46;98829.56;5039966;27;103451;-72
2022/10/26 07:32:05;;;;;;;7.40;5.63;;;;;;;16.10;86.71;98830.53;5036018;27;104234;-74
2022/10/26 07:34:32;;;;;;;6.88;5.78;;;;;;;16.10;86.43;98827.00;5026733;27;102833;-72
2022/10/26 07:37:00;;;;;;;7.63;5.25;;;;;;;16.30;86.84;98836.66;5038231;27;103289;-72
2022/10/26 07:39:31;;;;;;;4.23;3.30;;;;;;;16.72;84.72;98837.97;5034356;27;103708;-72
2022/10/26 07:41:59;;;;;;;9.68;3.50;;;;;;;16.74;84.03;98838.66;5036765;27;103210;-72
2022/10/26 07:44:30;;;;;;;6.88;3.22;;;;;;;16.80;83.30;98846.09;5040536;27;103115;-73
2022/10/26 07:46:58;;;;;;;4.55;2.50;;;;;;;17.34;81.47;98839.94;5034812;27;102705;-73
2022/10/26 07:49:26;;;;;;;6.10;3.35;;;;;;;17.24;82.47;98841.78;5037007;27;103903;-73
2022/10/26 07:51:54;;;;;;;4.93;2.83;;;;;;;17.32;81.27;98846.38;5053692;27;102705;-73
2022/10/26 07:54:22;;;;;;;4.10;2.60;;;;;;;17.35;81.39;98856.75;5032786;27;102743;-73
2022/10/26 07:56:52;;;;;;;5.35;2.30;;;;;;;17.31;81.25;98855.41;5033005;27;102819;-73
2022/10/26 07:59:20;;;;;;;4.63;2.37;;;;;;;17.57;80.01;98853.69;5030652;27;105476;-73
2022/10/26 08:01:49;;;;;;;5.32;2.28;;;;;;;17.47;80.15;98850.22;5039172;27;103240;-73
2022/10/26 08:04:17;;;;;;;4.23;2.60;;;;;;;17.85;79.14;98849.97;5042949;27;102969;-72
2022/10/26 08:06:46;;;;;;;4.37;2.47;;;;;;;17.84;79.30;98850.16;5033482;27;102781;-72
2022/10/26 08:09:13;;;;;;;4.03;2.23;;;;;;;17.91;78.66;98852.03;5030064;27;104208;-73
2022/10/26 08:11:41;;;;;;;3.30;2.38;;;;;;;18.05;77.48;98844.50;5034556;27;103358;-73
2022/10/26 08:14:11;;;;;;;4.07;2.20;;;;;;;17.95;77.79;98853.44;5036410;27;102755;-72
2022/10/26 08:16:39;;;;;;;4.95;2.50;;;;;;;18.07;77.50;98858.53;5031646;27;103318;-73
2022/10/26 08:19:09;;;;;;;5.25;2.53;;;;;;;18.29;77.22;98855.38;5027314;27;104318;-73
2022/10/26 08:21:36;;;;;;;4.63;2.33;;;;;;;18.10;77.81;98863.59;5032333;27;103356;-73
2022/10/26 08:24:08;;;;;;;2.80;1.90;;;;;;;18.43;76.81;98857.47;5034126;27;102619;-72
2022/10/26 08:26:36;;;;;;;3.10;2.20;;;;;;;18.68;75.66;98862.03;5037637;27;102864;-73
2022/10/26 08:29:04;;;;;;;3.15;1.95;;;;;;;18.93;75.66;98852.31;5035461;27;103732;-73
2022/10/26 08:31:32;;;;;;;2.80;2.10;;;;;;;19.02;75.86;98854.03;5034305;27;103315;-73
2022/10/26 08:34:00;;;;;;;3.40;2.35;;;;;;;19.08;75.37;98843.53;5033809;27;102925;-73
2022/10/26 08:36:30;;;;;;;3.17;2.28;;;;;;;19.09;75.04;98842.50;5037693;27;102878;-73
2022/10/26 08:38:58;;;;;;;7.28;2.63;;;;;;;18.80;75.62;98839.38;5027977;27;104135;-73
2022/10/26 08:41:36;;;;;;;3.03;1.98;;;;;;;19.02;74.80;98843.31;5036106;27;103330;-74
2022/10/26 08:44:14;;;;;;;2.83;2.20;;;;;;;18.87;75.08;98851.09;5019784;27;102706;-73
2022/10/26 08:46:46;;;;;;;3.47;2.28;;;;;;;19.06;74.22;98860.72;5050179;27;103688;-74
2022/10/26 08:49:23;;;;;;;4.88;2.05;;;;;;;19.06;74.58;98860.72;5034400;27;104226;-73
2022/10/26 08:51:54;;;;;;;2.97;2.00;;;;;;;19.23;73.45;98872.38;5029183;27;103221;-74
2022/10/26 08:54:33;;;;;;;3.00;1.90;;;;;;;19.26;73.35;98872.03;5036546;27;102715;-74
2022/10/26 08:57:11;;;;;;;3.80;1.97;;;;;;;19.41;73.04;98875.81;5039233;27;102967;-73
2022/10/26 08:59:43;;;;;;;6.72;2.30;;;;;;;19.42;72.78;98877.50;5035543;27;103355;-74
2022/10/26 09:02:13;;;;;;;3.33;2.57;;;;;;;19.23;73.71;98888.44;5038728;27;104481;-73
2022/10/26 09:04:41;;;;;;;3.77;2.40;;;;;;;19.54;72.78;98885.06;5033394;27;102755;-73
2022/10/26 09:07:24;;;;;;;2.78;1.80;;;;;;;19.90;72.46;98882.16;5033110;27;102866;-74
2022/10/26 09:10:01;;;;;;;6.20;2.00;;;;;;;20.02;71.67;98887.00;5041472;27;104418;-73
2022/10/26 09:12:39;;;;;;;4.07;2.20;;;;;;;20.15;71.06;98892.72;5032899;27;103835;-74
2022/10/26 09:15:17;;;;;;;3.70;2.28;;;;;;;20.43;70.30;98893.28;5041135;27;102918;-74
2022/10/26 09:17:53;;;;;;;5.50;2.47;;;;;;;20.17;71.25;98901.44;5034540;27;102969;-74
2022/10/26 09:20:54;;;;;;;5.67;2.20;;;;;;;20.56;70.65;98892.75;5049443;27;103814;-74
2022/10/26 09:23:40;;;;;;;6.25;2.72;;;;;;;20.56;69.61;98898.13;5032771;27;103335;-74
2022/10/26 09:26:13;;;;;;;5.60;2.35;;;;;;;20.67;69.06;98908.50;5034456;27;102769;-74
2022/10/26 09:28:46;;;;;;;4.45;2.30;;;;;;;20.59;69.57;98906.69;5037253;27;102863;-74
2022/10/26 09:31:17;;;;;;;6.47;2.20;;;;;;;20.88;68.64;98907.97;5035008;27;104101;-74
2022/10/26 09:33:44;;;;;;;4.57;2.50;;;;;;;20.97;69.04;98910.47;5036453;27;103287;-74
2022/10/26 09:36:19;;;;;;;4.15;2.05;;;;;;;20.58;68.21;98915.72;5036385;27;102831;-74
2022/10/26 09:38:53;;;;;;;4.70;2.20;;;;;;;20.73;67.82;98918.56;5040015;27;103526;-74
2022/10/26 09:41:26;;;;;;;6.05;2.35;;;;;;;20.67;67.58;98925.44;5037033;27;103303;-74
2022/10/26 09:44:06;;;;;;;4.65;2.35;;;;;;;21.20;66.38;98932.09;5039913;27;103409;-75
2022/10/26 09:46:45;;;;;;;4.90;2.40;;;;;;;21.78;65.37;98926.34;5033297;27;102672;-74
2022/10/26 09:49:20;;;;;;;7.60;2.42;;;;;;;21.96;64.26;98932.28;5036379;27;102779;-75
2022/10/26 09:51:48;;;;;;;6.70;2.40;;;;;;;21.89;63.71;98929.47;5038911;27;103497;-75
2022/10/26 09:54:21;;;;;;;6.65;2.35;;;;;;;21.69;63.81;98930.06;5039134;27;103185;-75
2022/10/26 09:56:53;;;;;;;3.83;1.95;;;;;;;21.85;63.54;98935.34;5037999;27;103620;-75
2022/10/26 09:59:25;;;;;;;2.83;1.88;;;;;;;22.13;63.33;98931.19;5035965;27;102608;-75
2022/10/26 10:01:53;;;;;;;4.00;2.10;;;;;;;22.04;63.77;98917.94;5031861;27;103270;-75
2022/10/26 10:04:22;;;;;;;6.37;2.27;;;;;;;22.23;63.45;98928.28;5038216;27;103196;-74
2022/10/26 10:06:52;;;;;;;4.30;2.22;;;;;;;22.20;63.53;98937.53;5036001;27;102722;-75
2022/10/26 10:09:23;;;;;;;4.22;2.38;;;;;;;22.17;63.93;98932.50;5038718;27;102735;-75
2022/10/26 10:11:57;;;;;;;4.38;2.10;;;;;;;22.07;64.46;98933.72;5035431;27;103260;-75
2022/10/26 10:14:27;;;;;;;3.60;2.25;;;;;;;22.22;63.86;98934.66;5041346;27;105225;-75
2022/10/26 10:17:00;;;;;;;5.30;2.42;;;;;;;21.78;64.19;98937.09;5039631;27;102610;-75
2022/10/26 10:19:30;;;;;;;5.88;2.10;;;;;;;22.30;62.24;98943.50;5038319;27;104139;-75
2022/10/26 10:22:00;;;;;;;3.37;1.90;;;;;;;22.65;62.49;98946.66;5037730;27;103285;-74
2022/10/26 10:24:31;;;;;;;5.45;2.10;;;;;;;22.47;62.29;98949.59;5037153;27;104375;-75
2022/10/26 10:27:01;;;;;;;4.47;1.95;;;;;;;21.90;63.67;98954.50;5040615;27;102927;-74
2022/10/26 10:29:31;;;;;;;5.22;2.10;;;;;;;22.31;62.70;98953.28;5030484;27;103962;-72
2022/10/26 10:32:01;;;;;;;5.53;2.55;;;;;;;22.26;64.36;98952.94;5033406;27;103496;-70
2022/10/26 10:34:30;;;;;;;5.15;1.92;;;;;;;22.04;63.89;98956.44;5030571;27;103364;-69
2022/10/26 10:36:59;;;;;;;3.33;1.90;;;;;;;21.80;64.64;98956.56;5031557;27;102648;-69
2022/10/26 10:39:37;;;;;;;6.90;2.88;;;;;;;21.94;64.65;98963.91;5034839;27;104262;-69
2022/10/26 10:42:14;;;;;;;7.35;2.65;;;;;;;21.76;64.24;98965.97;5049827;27;103946;-69
2022/10/26 10:44:44;;;;;;;4.22;2.47;;;;;;;21.94;64.56;98967.44;5029637;27;103195;-69
2022/10/26 10:47:21;;;;;;;2.92;1.73;;;;;;;21.79;64.77;98962.94;5030771;27;103873;-70
2022/10/26 10:49:54;;;;;;;2.95;2.30;;;;;;;22.31;64.11;98973.97;5033623;27;103123;-70
2022/10/26 10:52:25;;;;;;;6.68;1.98;;;;;;;22.07;63.88;98964.16;5036138;27;103579;-71
2022/10/26 10:55:08;;;;;;;6.85;2.17;;;;;;;21.64;65.09;98970.91;5036263;27;103178;-72
2022/10/26 10:57:44;;;;;;;5.40;1.85;;;;;;;22.05;64.50;98974.28;5038155;27;103141;-74
2022/10/26 11:00:12;;;;;;;3.80;1.70;;;;;;;22.01;64.26;98970.25;5039193;27;103820;-75
2022/10/26 11:03:08;;;;;;;5.25;2.17;;;;;;;21.98;64.08;98975.97;5043783;27;103609;-75
2022/10/26 11:05:46;;;;;;;4.85;2.15;;;;;;;22.34;63.53;98974.41;5033903;27;104199;-75
2022/10/26 11:08:20;;;;;;;5.57;2.17;;;;;;;22.95;61.33;98961.84;5035847;27;102782;-74
2022/10/26 11:10:54;;;;;;;4.43;1.85;;;;;;;23.49;58.57;98976.81;5039344;27;103872;-73
2022/10/26 11:13:27;;;;;;;5.07;1.70;;;;;;;23.69;59.01;98973.53;5045745;27;103367;-73
2022/10/26 11:16:01;;;;;;;5.13;1.80;;;;;;;23.27;59.96;98979.56;5041152;27;103032;-73
2022/10/26 11:18:35;;;;;;;4.55;2.17;;;;;;;23.27;60.07;98980.38;5043772;27;103707;-73
2022/10/26 11:21:13;;;;;;;3.38;1.90;;;;;;;23.28;61.15;98976.66;5044089;27;102969;-73
2022/10/26 11:23:48;;;;;;;6.00;1.90;;;;;;;22.98;60.01;98972.25;5041372;27;103331;-73
2022/10/26 11:26:24;;;;;;;6.40;1.90;;;;;;;23.07;61.04;98973.88;5044645;27;103374;-74
2022/10/26 11:28:57;;;;;;;4.35;1.90;;;;;;;22.94;60.71;98979.03;5041596;27;102698;-73
2022/10/26 11:31:29;;;;;;;2.50;1.63;;;;;;;23.46;60.68;98974.50;5044922;27;103877;-73
2022/10/26 11:34:17;;;;;;;1.98;1.55;;;;;;;23.81;59.81;98972.88;5054885;27;103729;-74
2022/10/26 11:36:50;;;;;;;4.68;2.13;;;;;;;24.90;57.19;98969.91;5038420;27;103347;-73
2022/10/26 11:39:23;;;;;;;4.78;2.25;;;;;;;24.67;55.60;98975.50;5040478;27;102731;-73
2022/10/26 11:42:00;;;;;;;5.68;2.10;;;;;;;24.21;57.20;98974.22;5042637;27;103758;-73
2022/10/26 11:44:35;;;;;;;8.63;2.13;;;;;;;23.74;57.85;98976.50;5041858;27;103920;-73